sensor_id;sensor_type;location;lat;lon;timestamp;pressure;altitude;pressure_sealevel;temperature;humidity
21821;BME280;11073;48.586;12.066;2023-02-13T00:01:33;98402.81;;;3.09;73.98
21821;BME280;11073;48.586;12.066;2023-02-13T00:04:02;98403.66;;;3.10;74.00
21821;BME280;11073;48.586;12.066;2023-02-13T00:06:31;98397.31;;;3.11;74.09
21821;BME280;11073;48.586;12.066;2023-02-13T00:09:00;98404.78;;;3.17;74.25
21821;BME280;11073;48.586;12.066;2023-02-13T00:11:33;98400.03;;;3.01;73.96
21821;BME280;11073;48.586;12.066;2023-02-13T00:14:03;98400.44;;;3.06;74.36
21821;BME280;11073;48.586;12.066;2023-02-13T00:16:32;98393.94;;;3.09;74.31
21821;BME280;11073;48.586;12.066;2023-02-13T00:19:01;98391.44;;;2.88;74.28
21821;BME280;11073;48.586;12.066;2023-02-13T00:21:29;98389.91;;;2.85;74.48
21821;BME280;11073;48.586;12.066;2023-02-13T00:23:58;98385.94;;;2.89;74.59
21821;BME280;11073;48.586;12.066;2023-02-13T00:26:28;98387.22;;;2.85;74.53
21821;BME280;11073;48.586;12.066;2023-02-13T00:28:57;98376.97;;;2.71;74.65
21821;BME280;11073;48.586;12.066;2023-02-13T00:31:27;98375.00;;;2.63;74.84
21821;BME280;11073;48.586;12.066;2023-02-13T00:33:56;98381.06;;;2.65;74.91
21821;BME280;11073;48.586;12.066;2023-02-13T00:36:26;98379.50;;;2.63;75.13
21821;BME280;11073;48.586;12.066;2023-02-13T00:38:55;98373.16;;;2.73;75.18
21821;BME280;11073;48.586;12.066;2023-02-13T00:41:24;98370.34;;;2.65;75.11
21821;BME280;11073;48.586;12.066;2023-02-13T00:43:52;98362.19;;;2.57;75.25
21821;BME280;11073;48.586;12.066;2023-02-13T00:46:22;98370.66;;;2.62;75.30
21821;BME280;11073;48.586;12.066;2023-02-13T00:48:54;98378.38;;;2.65;75.45
21821;BME280;11073;48.586;12.066;2023-02-13T00:51:24;98370.09;;;2.68;75.37
21821;BME280;11073;48.586;12.066;2023-02-13T00:53:53;98376.81;;;2.72;75.36
21821;BME280;11073;48.586;12.066;2023-02-13T00:56:22;98364.16;;;2.74;75.46
21821;BME280;11073;48.586;12.066;2023-02-13T00:58:51;98380.19;;;2.74;75.28
21821;BME280;11073;48.586;12.066;2023-02-13T01:01:20;98377.66;;;2.73;75.47
21821;BME280;11073;48.586;12.066;2023-02-13T01:03:49;98383.84;;;2.73;75.50
21821;BME280;11073;48.586;12.066;2023-02-13T01:06:19;98382.16;;;2.72;75.30
21821;BME280;11073;48.586;12.066;2023-02-13T01:08:47;98388.78;;;2.78;75.56
21821;BME280;11073;48.586;12.066;2023-02-13T01:11:16;98391.06;;;2.83;75.56
21821;BME280;11073;48.586;12.066;2023-02-13T01:13:45;98391.44;;;2.88;75.31
21821;BME280;11073;48.586;12.066;2023-02-13T01:16:14;98394.69;;;2.82;75.25
21821;BME280;11073;48.586;12.066;2023-02-13T01:18:44;98390.88;;;2.74;75.26
21821;BME280;11073;48.586;12.066;2023-02-13T01:21:15;98389.63;;;2.79;75.28
21821;BME280;11073;48.586;12.066;2023-02-13T01:23:46;98370.34;;;2.75;75.53
21821;BME280;11073;48.586;12.066;2023-02-13T01:26:21;98388.63;;;2.89;75.85
21821;BME280;11073;48.586;12.066;2023-02-13T01:28:51;98394.69;;;2.91;75.57
21821;BME280;11073;48.586;12.066;2023-02-13T01:31:21;98391.31;;;2.99;75.36
21821;BME280;11073;48.586;12.066;2023-02-13T01:33:55;98389.16;;;3.02;75.44
21821;BME280;11073;48.586;12.066;2023-02-13T01:36:24;98389.31;;;3.01;75.32
21821;BME280;11073;48.586;12.066;2023-02-13T01:38:57;98384.13;;;2.99;75.13
21821;BME280;11073;48.586;12.066;2023-02-13T01:41:27;98381.59;;;2.88;74.85
21821;BME280;11073;48.586;12.066;2023-02-13T01:43:56;98386.81;;;2.90;74.98
21821;BME280;11073;48.586;12.066;2023-02-13T01:46:28;98392.16;;;2.90;74.97
21821;BME280;11073;48.586;12.066;2023-02-13T01:49:04;98389.22;;;2.83;74.83
21821;BME280;11073;48.586;12.066;2023-02-13T01:51:34;98385.09;;;2.89;75.01
21821;BME280;11073;48.586;12.066;2023-02-13T01:54:08;98379.06;;;2.87;74.95
21821;BME280;11073;48.586;12.066;2023-02-13T01:56:40;98383.41;;;2.88;75.01
21821;BME280;11073;48.586;12.066;2023-02-13T01:59:13;98375.69;;;2.85;74.75
21821;BME280;11073;48.586;12.066;2023-02-13T02:01:43;98368.22;;;2.79;74.60
21821;BME280;11073;48.586;12.066;2023-02-13T02:04:15;98378.78;;;2.80;74.64
21821;BME280;11073;48.586;12.066;2023-02-13T02:06:47;98380.78;;;2.78;74.67
21821;BME280;11073;48.586;12.066;2023-02-13T02:09:29;98334.31;;;2.60;74.78
21821;BME280;11073;48.586;12.066;2023-02-13T02:12:03;98360.09;;;2.70;74.67
21821;BME280;11073;48.586;12.066;2023-02-13T02:14:36;98370.22;;;2.57;74.69
21821;BME280;11073;48.586;12.066;2023-02-13T02:17:07;98364.72;;;2.59;74.71
21821;BME280;11073;48.586;12.066;2023-02-13T02:19:38;98366.16;;;2.63;74.75
21821;BME280;11073;48.586;12.066;2023-02-13T02:26:04;98368.81;;;2.72;74.71
21821;BME280;11073;48.586;12.066;2023-02-13T02:29:23;98367.41;;;2.68;74.65
21821;BME280;11073;48.586;12.066;2023-02-13T02:32:12;98359.25;;;2.70;74.63
21821;BME280;11073;48.586;12.066;2023-02-13T02:34:55;98367.25;;;2.70;74.57
21821;BME280;11073;48.586;12.066;2023-02-13T02:37:41;98364.00;;;2.66;74.40
21821;BME280;11073;48.586;12.066;2023-02-13T02:40:22;98366.56;;;2.58;74.47
21821;BME280;11073;48.586;12.066;2023-02-13T02:43:09;98360.50;;;2.56;74.52
21821;BME280;11073;48.586;12.066;2023-02-13T02:45:49;98358.53;;;2.58;74.62
21821;BME280;11073;48.586;12.066;2023-02-13T02:48:28;98354.88;;;2.59;74.56
21821;BME280;11073;48.586;12.066;2023-02-13T02:51:23;98354.88;;;2.59;74.67
21821;BME280;11073;48.586;12.066;2023-02-13T02:54:02;98365.84;;;2.66;74.64
21821;BME280;11073;48.586;12.066;2023-02-13T02:56:56;98364.59;;;2.70;74.49
21821;BME280;11073;48.586;12.066;2023-02-13T02:59:30;98365.31;;;2.62;74.43
21821;BME280;11073;48.586;12.066;2023-02-13T03:02:17;98363.03;;;2.67;74.45
21821;BME280;11073;48.586;12.066;2023-02-13T03:05:15;98356.69;;;2.59;74.29
21821;BME280;11073;48.586;12.066;2023-02-13T03:08:03;98341.94;;;2.45;74.09
21821;BME280;11073;48.586;12.066;2023-02-13T03:10:35;98361.22;;;2.48;74.43
21821;BME280;11073;48.586;12.066;2023-02-13T03:13:36;98356.13;;;2.45;74.32
21821;BME280;11073;48.586;12.066;2023-02-13T03:16:11;98340.41;;;2.33;74.54
21821;BME280;11073;48.586;12.066;2023-02-13T03:19:00;98356.72;;;2.10;74.66
21821;BME280;11073;48.586;12.066;2023-02-13T03:22:05;98353.88;;;2.02;75.03
21821;BME280;11073;48.586;12.066;2023-02-13T03:24:52;98348.97;;;2.07;75.29
21821;BME280;11073;48.586;12.066;2023-02-13T03:27:34;98355.84;;;2.00;75.23
21821;BME280;11073;48.586;12.066;2023-02-13T03:30:29;98350.50;;;2.00;75.66
21821;BME280;11073;48.586;12.066;2023-02-13T03:33:14;98348.81;;;1.99;75.53
21821;BME280;11073;48.586;12.066;2023-02-13T03:35:48;98348.81;;;2.09;75.74
21821;BME280;11073;48.586;12.066;2023-02-13T03:38:43;98349.53;;;2.11;75.70
21821;BME280;11073;48.586;12.066;2023-02-13T03:41:20;98351.63;;;2.07;75.66
21821;BME280;11073;48.586;12.066;2023-02-13T03:44:05;98357.41;;;2.12;75.79
21821;BME280;11073;48.586;12.066;2023-02-13T03:46:40;98355.72;;;2.11;75.96
21821;BME280;11073;48.586;12.066;2023-02-13T03:49:12;98351.50;;;2.18;75.88
21821;BME280;11073;48.586;12.066;2023-02-13T03:52:04;98351.22;;;2.21;75.91
21821;BME280;11073;48.586;12.066;2023-02-13T03:54:42;98345.88;;;2.31;75.97
21821;BME280;11073;48.586;12.066;2023-02-13T03:57:31;98338.25;;;2.17;75.75
21821;BME280;11073;48.586;12.066;2023-02-13T04:00:19;98348.41;;;2.13;75.84
21821;BME280;11073;48.586;12.066;2023-02-13T04:02:55;98354.59;;;2.14;75.86
21821;BME280;11073;48.586;12.066;2023-02-13T04:05:28;98347.00;;;2.19;75.94
21821;BME280;11073;48.586;12.066;2023-02-13T04:07:59;98351.06;;;2.23;76.00
21821;BME280;11073;48.586;12.066;2023-02-13T04:10:33;98344.47;;;2.17;75.94
21821;BME280;11073;48.586;12.066;2023-02-13T04:13:08;98352.75;;;2.14;76.05
21821;BME280;11073;48.586;12.066;2023-02-13T04:15:46;98356.13;;;2.07;75.97
21821;BME280;11073;48.586;12.066;2023-02-13T04:18:20;98356.81;;;1.99;76.03
21821;BME280;11073;48.586;12.066;2023-02-13T04:20:51;98354.31;;;2.07;76.23
21821;BME280;11073;48.586;12.066;2023-02-13T04:23:20;98363.44;;;2.14;76.30
21821;BME280;11073;48.586;12.066;2023-02-13T04:25:53;98367.66;;;2.17;76.52
21821;BME280;11073;48.586;12.066;2023-02-13T04:28:24;98359.78;;;2.15;76.28
21821;BME280;11073;48.586;12.066;2023-02-13T04:30:53;98358.66;;;2.08;76.21
21821;BME280;11073;48.586;12.066;2023-02-13T04:33:22;98356.66;;;1.91;76.14
21821;BME280;11073;48.586;12.066;2023-02-13T04:35:50;98357.50;;;1.91;76.32
21821;BME280;11073;48.586;12.066;2023-02-13T04:38:19;98358.06;;;1.95;76.46
21821;BME280;11073;48.586;12.066;2023-02-13T04:40:50;98362.03;;;2.01;76.71
21821;BME280;11073;48.586;12.066;2023-02-13T04:43:19;98360.19;;;1.91;76.42
21821;BME280;11073;48.586;12.066;2023-02-13T04:45:48;98355.69;;;1.92;76.64
21821;BME280;11073;48.586;12.066;2023-02-13T04:48:17;98366.78;;;1.87;76.56
21821;BME280;11073;48.586;12.066;2023-02-13T04:50:47;98364.25;;;1.86;76.49
21821;BME280;11073;48.586;12.066;2023-02-13T04:53:15;98368.97;;;1.73;76.51
21821;BME280;11073;48.586;12.066;2023-02-13T04:55:44;98373.34;;;1.74;76.65
21821;BME280;11073;48.586;12.066;2023-02-13T04:58:15;98370.72;;;1.83;76.95
21821;BME280;11073;48.586;12.066;2023-02-13T05:00:43;98355.38;;;1.76;76.57
21821;BME280;11073;48.586;12.066;2023-02-13T05:03:13;98361.28;;;1.79;76.56
21821;BME280;11073;48.586;12.066;2023-02-13T05:05:41;98361.97;;;1.72;76.60
21821;BME280;11073;48.586;12.066;2023-02-13T05:08:11;98362.38;;;1.67;76.82
21821;BME280;11073;48.586;12.066;2023-02-13T05:10:40;98363.22;;;1.68;76.83
21821;BME280;11073;48.586;12.066;2023-02-13T05:13:08;98363.06;;;1.59;76.80
21821;BME280;11073;48.586;12.066;2023-02-13T05:15:39;98364.59;;;1.62;76.96
21821;BME280;11073;48.586;12.066;2023-02-13T05:18:09;98367.97;;;1.54;76.87
21821;BME280;11073;48.586;12.066;2023-02-13T05:20:38;98362.34;;;1.57;77.05
21821;BME280;11073;48.586;12.066;2023-02-13T05:23:12;98364.91;;;1.69;76.98
21821;BME280;11073;48.586;12.066;2023-02-13T05:25:49;98368.00;;;1.74;77.15
21821;BME280;11073;48.586;12.066;2023-02-13T05:28:18;98361.84;;;1.83;77.21
21821;BME280;11073;48.586;12.066;2023-02-13T05:31:03;98366.22;;;1.84;77.06
21821;BME280;11073;48.586;12.066;2023-02-13T05:33:31;98363.00;;;1.90;77.04
21821;BME280;11073;48.586;12.066;2023-02-13T05:36:00;98351.19;;;1.83;76.98
21821;BME280;11073;48.586;12.066;2023-02-13T05:38:29;98366.38;;;1.92;76.92
21821;BME280;11073;48.586;12.066;2023-02-13T05:40:58;98369.47;;;1.97;76.99
21821;BME280;11073;48.586;12.066;2023-02-13T05:43:27;98364.41;;;1.94;76.82
21821;BME280;11073;48.586;12.066;2023-02-13T05:46:06;98369.75;;;1.94;76.74
21821;BME280;11073;48.586;12.066;2023-02-13T05:48:35;98361.84;;;1.83;76.52
21821;BME280;11073;48.586;12.066;2023-02-13T05:51:05;98375.06;;;1.84;76.73
21821;BME280;11073;48.586;12.066;2023-02-13T05:53:34;98368.59;;;1.87;76.72
21821;BME280;11073;48.586;12.066;2023-02-13T05:56:04;98374.38;;;1.82;76.73
21821;BME280;11073;48.586;12.066;2023-02-13T05:58:33;98369.44;;;1.78;76.53
21821;BME280;11073;48.586;12.066;2023-02-13T06:01:04;98372.25;;;1.76;76.78
21821;BME280;11073;48.586;12.066;2023-02-13T06:03:34;98381.84;;;1.88;76.80
21821;BME280;11073;48.586;12.066;2023-02-13T06:06:02;98390.13;;;1.95;77.05
21821;BME280;11073;48.586;12.066;2023-02-13T06:08:31;98385.81;;;2.04;76.90
21821;BME280;11073;48.586;12.066;2023-02-13T06:11:01;98398.19;;;2.05;76.92
21821;BME280;11073;48.586;12.066;2023-02-13T06:13:30;98386.50;;;2.06;76.73
21821;BME280;11073;48.586;12.066;2023-02-13T06:15:58;98398.59;;;2.10;76.70
21821;BME280;11073;48.586;12.066;2023-02-13T06:18:29;98400.16;;;2.12;76.88
21821;BME280;11073;48.586;12.066;2023-02-13T06:20:58;98394.69;;;2.14;76.78
21821;BME280;11073;48.586;12.066;2023-02-13T06:23:27;98396.06;;;2.08;76.59
21821;BME280;11073;48.586;12.066;2023-02-13T06:25:55;98393.97;;;2.12;76.65
21821;BME280;11073;48.586;12.066;2023-02-13T06:28:24;98396.50;;;2.13;76.42
21821;BME280;11073;48.586;12.066;2023-02-13T06:30:52;98400.88;;;2.14;76.43
21821;BME280;11073;48.586;12.066;2023-02-13T06:33:22;98401.72;;;2.15;76.41
21821;BME280;11073;48.586;12.066;2023-02-13T06:35:52;98386.50;;;2.06;76.06
21821;BME280;11073;48.586;12.066;2023-02-13T06:38:21;98414.94;;;2.16;76.22
21821;BME280;11073;48.586;12.066;2023-02-13T06:40:51;98431.16;;;2.25;76.36
21821;BME280;11073;48.586;12.066;2023-02-13T06:43:20;98418.47;;;2.27;76.34
21821;BME280;11073;48.586;12.066;2023-02-13T06:45:48;98424.53;;;2.29;76.33
21821;BME280;11073;48.586;12.066;2023-02-13T06:48:18;98414.81;;;2.28;76.23
21821;BME280;11073;48.586;12.066;2023-02-13T06:50:46;98441.69;;;2.36;76.21
21821;BME280;11073;48.586;12.066;2023-02-13T06:53:16;98441.41;;;2.39;76.19
21821;BME280;11073;48.586;12.066;2023-02-13T06:55:45;98437.63;;;2.41;76.13
21821;BME280;11073;48.586;12.066;2023-02-13T06:58:14;98445.66;;;2.41;75.89
21821;BME280;11073;48.586;12.066;2023-02-13T07:00:43;98445.81;;;2.49;76.03
21821;BME280;11073;48.586;12.066;2023-02-13T07:03:12;98453.53;;;2.53;76.03
21821;BME280;11073;48.586;12.066;2023-02-13T07:05:41;98448.06;;;2.54;75.98
21821;BME280;11073;48.586;12.066;2023-02-13T07:08:11;98451.84;;;2.52;75.91
21821;BME280;11073;48.586;12.066;2023-02-13T07:10:42;98457.06;;;2.53;75.83
21821;BME280;11073;48.586;12.066;2023-02-13T07:13:11;98453.53;;;2.53;75.65
21821;BME280;11073;48.586;12.066;2023-02-13T07:15:40;98456.94;;;2.55;75.68
21821;BME280;11073;48.586;12.066;2023-02-13T07:18:11;98458.34;;;2.59;75.64
21821;BME280;11073;48.586;12.066;2023-02-13T07:20:40;98457.34;;;2.60;75.49
21821;BME280;11073;48.586;12.066;2023-02-13T07:23:09;98459.31;;;2.58;75.31
21821;BME280;11073;48.586;12.066;2023-02-13T07:25:38;98456.09;;;2.54;75.40
21821;BME280;11073;48.586;12.066;2023-02-13T07:28:08;98446.09;;;2.46;75.32
21821;BME280;11073;48.586;12.066;2023-02-13T07:30:37;98467.19;;;2.59;75.28
21821;BME280;11073;48.586;12.066;2023-02-13T07:33:05;98473.28;;;2.61;75.26
21821;BME280;11073;48.586;12.066;2023-02-13T07:35:34;98468.47;;;2.55;75.08
21821;BME280;11073;48.586;12.066;2023-02-13T07:38:03;98468.78;;;2.62;75.12
21821;BME280;11073;48.586;12.066;2023-02-13T07:40:32;98473.81;;;2.65;75.15
21821;BME280;11073;48.586;12.066;2023-02-13T07:43:00;98473.97;;;2.63;75.04
21821;BME280;11073;48.586;12.066;2023-02-13T07:45:30;98476.34;;;2.66;74.96
21821;BME280;11073;48.586;12.066;2023-02-13T07:47:59;98475.25;;;2.69;74.95
21821;BME280;11073;48.586;12.066;2023-02-13T07:50:28;98474.41;;;2.68;74.94
21821;BME280;11073;48.586;12.066;2023-02-13T07:52:58;98472.00;;;2.65;74.63
21821;BME280;11073;48.586;12.066;2023-02-13T07:55:28;98474.66;;;2.65;74.78
21821;BME280;11073;48.586;12.066;2023-02-13T07:57:58;98480.47;;;2.61;74.42
21821;BME280;11073;48.586;12.066;2023-02-13T08:00:27;98473.69;;;2.57;74.55
21821;BME280;11073;48.586;12.066;2023-02-13T08:02:59;98471.00;;;2.57;74.54
21821;BME280;11073;48.586;12.066;2023-02-13T08:05:28;98465.06;;;2.53;74.45
21821;BME280;11073;48.586;12.066;2023-02-13T08:07:58;98472.41;;;2.51;74.40
21821;BME280;11073;48.586;12.066;2023-02-13T08:10:26;98477.19;;;2.47;74.42
21821;BME280;11073;48.586;12.066;2023-02-13T08:13:13;98468.63;;;2.54;74.54
21821;BME280;11073;48.586;12.066;2023-02-13T08:15:43;98476.91;;;2.60;74.52
21821;BME280;11073;48.586;12.066;2023-02-13T08:18:13;98474.13;;;2.62;74.44
21821;BME280;11073;48.586;12.066;2023-02-13T08:20:43;98480.72;;;2.67;74.32
21821;BME280;11073;48.586;12.066;2023-02-13T08:23:12;98474.97;;;2.62;74.30
21821;BME280;11073;48.586;12.066;2023-02-13T08:25:40;98473.97;;;2.63;74.22
21821;BME280;11073;48.586;12.066;2023-02-13T08:28:09;98478.47;;;2.72;74.37
21821;BME280;11073;48.586;12.066;2023-02-13T08:30:37;98476.09;;;2.69;73.95
21821;BME280;11073;48.586;12.066;2023-02-13T08:33:07;98461.44;;;2.54;74.16
21821;BME280;11073;48.586;12.066;2023-02-13T08:35:37;98470.59;;;2.61;74.23
21821;BME280;11073;48.586;12.066;2023-02-13T08:38:05;98474.66;;;2.75;74.14
21821;BME280;11073;48.586;12.066;2023-02-13T08:40:35;98481.00;;;3.03;75.06
21821;BME280;11073;48.586;12.066;2023-02-13T08:43:05;98469.78;;;2.90;74.43
21821;BME280;11073;48.586;12.066;2023-02-13T08:45:35;98477.38;;;2.85;74.21
21821;BME280;11073;48.586;12.066;2023-02-13T08:48:05;98490.72;;;2.94;74.01
21821;BME280;11073;48.586;12.066;2023-02-13T08:50:34;98486.66;;;2.90;74.04
21821;BME280;11073;48.586;12.066;2023-02-13T08:53:05;98486.09;;;2.87;74.00
21821;BME280;11073;48.586;12.066;2023-02-13T08:55:34;98486.38;;;2.84;73.91
21821;BME280;11073;48.586;12.066;2023-02-13T08:58:03;98487.47;;;2.81;73.78
21821;BME280;11073;48.586;12.066;2023-02-13T09:00:33;98484.41;;;2.86;74.04
21821;BME280;11073;48.586;12.066;2023-02-13T09:03:03;98482.97;;;2.82;73.87
21821;BME280;11073;48.586;12.066;2023-02-13T09:05:33;98489.03;;;2.74;74.12
21821;BME280;11073;48.586;12.066;2023-02-13T09:08:02;98491.69;;;2.64;74.31
21821;BME280;11073;48.586;12.066;2023-02-13T09:10:33;98489.19;;;2.63;74.35
21821;BME280;11073;48.586;12.066;2023-02-13T09:13:02;98488.34;;;2.72;74.61
21821;BME280;11073;48.586;12.066;2023-02-13T09:15:31;98471.28;;;2.63;74.46
21821;BME280;11073;48.586;12.066;2023-02-13T09:18:00;98489.31;;;2.81;74.61
21821;BME280;11073;48.586;12.066;2023-02-13T09:20:30;98481.44;;;2.89;74.65
21821;BME280;11073;48.586;12.066;2023-02-13T09:23:02;98489.19;;;3.01;74.65
21821;BME280;11073;48.586;12.066;2023-02-13T09:25:32;98496.09;;;3.14;74.66
21821;BME280;11073;48.586;12.066;2023-02-13T09:28:01;98495.91;;;3.25;74.62
21821;BME280;11073;48.586;12.066;2023-02-13T09:30:30;98495.09;;;3.34;74.37
21821;BME280;11073;48.586;12.066;2023-02-13T09:32:58;98496.38;;;3.20;73.94
21821;BME280;11073;48.586;12.066;2023-02-13T09:35:27;98496.25;;;3.12;74.23
21821;BME280;11073;48.586;12.066;2023-02-13T09:37:59;98494.94;;;3.16;74.21
21821;BME280;11073;48.586;12.066;2023-02-13T09:40:31;98496.66;;;3.27;74.41
21821;BME280;11073;48.586;12.066;2023-02-13T09:43:10;98506.34;;;3.38;74.37
21821;BME280;11073;48.586;12.066;2023-02-13T09:45:41;98502.41;;;3.42;74.25
21821;BME280;11073;48.586;12.066;2023-02-13T09:48:17;98509.00;;;3.47;74.18
21821;BME280;11073;48.586;12.066;2023-02-13T09:50:47;98504.50;;;3.48;73.89
21821;BME280;11073;48.586;12.066;2023-02-13T09:53:19;98499.53;;;3.53;74.08
21821;BME280;11073;48.586;12.066;2023-02-13T09:55:55;98498.28;;;3.57;74.10
21821;BME280;11073;48.586;12.066;2023-02-13T09:58:40;98495.59;;;3.57;74.06
21821;BME280;11073;48.586;12.066;2023-02-13T10:01:17;98494.47;;;3.40;73.95
21821;BME280;11073;48.586;12.066;2023-02-13T10:03:54;98497.63;;;3.36;74.11
21821;BME280;11073;48.586;12.066;2023-02-13T10:06:30;98493.09;;;3.36;74.23
21821;BME280;11073;48.586;12.066;2023-02-13T10:09:07;98507.88;;;3.50;74.36
21821;BME280;11073;48.586;12.066;2023-02-13T10:11:53;98506.00;;;3.60;74.26
21821;BME280;11073;48.586;12.066;2023-02-13T10:14:36;98502.72;;;3.76;74.37
21821;BME280;11073;48.586;12.066;2023-02-13T10:17:10;98503.72;;;3.84;74.28
21821;BME280;11073;48.586;12.066;2023-02-13T10:19:43;98500.88;;;3.76;74.04
21821;BME280;11073;48.586;12.066;2023-02-13T10:22:16;98505.13;;;3.79;74.04
21821;BME280;11073;48.586;12.066;2023-02-13T10:24:47;98502.59;;;3.68;73.85
21821;BME280;11073;48.586;12.066;2023-02-13T10:27:21;98502.88;;;3.74;73.98
21821;BME280;11073;48.586;12.066;2023-02-13T10:29:55;98504.28;;;3.69;74.03
21821;BME280;11073;48.586;12.066;2023-02-13T10:32:42;98501.66;;;3.59;74.12
21821;BME280;11073;48.586;12.066;2023-02-13T10:35:20;98491.78;;;3.59;74.12
21821;BME280;11073;48.586;12.066;2023-02-13T10:37:52;98492.88;;;3.67;74.34
21821;BME280;11073;48.586;12.066;2023-02-13T10:40:29;98486.56;;;3.58;74.30
21821;BME280;11073;48.586;12.066;2023-02-13T10:43:05;98486.88;;;3.45;74.38
21821;BME280;11073;48.586;12.066;2023-02-13T10:45:58;98488.81;;;3.53;74.61
21821;BME280;11073;48.586;12.066;2023-02-13T10:48:41;98479.38;;;3.58;74.86
21821;BME280;11073;48.586;12.066;2023-02-13T10:51:17;98489.66;;;3.63;74.61
21821;BME280;11073;48.586;12.066;2023-02-13T10:54:03;98476.84;;;3.57;74.60
21821;BME280;11073;48.586;12.066;2023-02-13T10:56:43;98479.91;;;3.62;74.65
21821;BME280;11073;48.586;12.066;2023-02-13T10:59:35;98486.78;;;3.74;74.76
21821;BME280;11073;48.586;12.066;2023-02-13T11:02:21;98461.78;;;3.56;74.76
21821;BME280;11073;48.586;12.066;2023-02-13T11:04:53;98481.84;;;3.79;74.61
21821;BME280;11073;48.586;12.066;2023-02-13T11:07:26;98467.34;;;3.72;74.68
21821;BME280;11073;48.586;12.066;2023-02-13T11:10:00;98473.13;;;3.77;74.81
21821;BME280;11073;48.586;12.066;2023-02-13T11:12:32;98455.47;;;3.84;75.01
21821;BME280;11073;48.586;12.066;2023-02-13T11:15:04;98468.81;;;3.94;74.76
21821;BME280;11073;48.586;12.066;2023-02-13T11:17:39;98465.19;;;3.85;74.60
21821;BME280;11073;48.586;12.066;2023-02-13T11:20:27;98467.47;;;3.80;74.73
21821;BME280;11073;48.586;12.066;2023-02-13T11:23:16;98468.44;;;3.79;74.76
21821;BME280;11073;48.586;12.066;2023-02-13T11:25:54;98470.56;;;3.85;74.88
21821;BME280;11073;48.586;12.066;2023-02-13T11:28:26;98467.81;;;3.95;74.92
21821;BME280;11073;48.586;12.066;2023-02-13T11:31:10;98453.16;;;3.99;74.96
21821;BME280;11073;48.586;12.066;2023-02-13T11:33:41;98464.66;;;4.09;74.83
21821;BME280;11073;48.586;12.066;2023-02-13T11:36:14;98482.41;;;4.20;74.92
21821;BME280;11073;48.586;12.066;2023-02-13T11:38:43;98472.19;;;4.24;74.62
21821;BME280;11073;48.586;12.066;2023-02-13T11:41:14;98479.09;;;4.26;74.62
21821;BME280;11073;48.586;12.066;2023-02-13T11:43:48;98474.56;;;4.54;74.70
21821;BME280;11073;48.586;12.066;2023-02-13T11:46:19;98482.16;;;4.59;74.29
21821;BME280;11073;48.586;12.066;2023-02-13T11:48:59;98486.84;;;4.57;74.01
21821;BME280;11073;48.586;12.066;2023-02-13T11:51:36;98485.13;;;4.56;73.99
21821;BME280;11073;48.586;12.066;2023-02-13T11:54:21;98476.38;;;4.54;73.86
21821;BME280;11073;48.586;12.066;2023-02-13T11:56:52;98479.16;;;4.62;74.00
21821;BME280;11073;48.586;12.066;2023-02-13T11:59:39;98476.31;;;4.63;73.76
21821;BME280;11073;48.586;12.066;2023-02-13T12:02:14;98470.81;;;4.65;73.68
21821;BME280;11073;48.586;12.066;2023-02-13T12:04:45;98470.50;;;4.68;73.62
21821;BME280;11073;48.586;12.066;2023-02-13T12:07:19;98469.59;;;4.77;73.63
21821;BME280;11073;48.586;12.066;2023-02-13T12:09:52;98468.69;;;4.86;73.63
21821;BME280;11073;48.586;12.066;2023-02-13T12:12:26;98465.69;;;4.89;73.32
21821;BME280;11073;48.586;12.066;2023-02-13T12:14:57;98467.31;;;5.00;73.33
21821;BME280;11073;48.586;12.066;2023-02-13T12:17:29;98453.66;;;4.93;73.11
21821;BME280;11073;48.586;12.066;2023-02-13T12:20:00;98463.22;;;4.96;72.99
21821;BME280;11073;48.586;12.066;2023-02-13T12:22:31;98453.00;;;4.99;73.00
21821;BME280;11073;48.586;12.066;2023-02-13T12:25:26;98457.38;;;5.18;73.05
21821;BME280;11073;48.586;12.066;2023-02-13T12:28:09;98453.22;;;5.24;72.94
21821;BME280;11073;48.586;12.066;2023-02-13T12:30:52;98447.59;;;5.35;72.89
21821;BME280;11073;48.586;12.066;2023-02-13T12:33:35;98447.59;;;5.35;72.73
21821;BME280;11073;48.586;12.066;2023-02-13T12:36:13;98449.03;;;5.47;72.76
21821;BME280;11073;48.586;12.066;2023-02-13T12:39:00;98450.03;;;5.46;72.28
21821;BME280;11073;48.586;12.066;2023-02-13T12:41:38;98435.09;;;5.44;72.17
21821;BME280;11073;48.586;12.066;2023-02-13T12:44:21;98449.44;;;5.61;72.21
21821;BME280;11073;48.586;12.066;2023-02-13T12:47:03;98446.03;;;5.50;71.94
21821;BME280;11073;48.586;12.066;2023-02-13T12:53:03;98443.81;;;5.46;71.53
21821;BME280;11073;48.586;12.066;2023-02-13T12:56:06;98441.91;;;5.64;71.83
21821;BME280;11073;48.586;12.066;2023-02-13T12:59:00;98430.94;;;5.84;71.77
21821;BME280;11073;48.586;12.066;2023-02-13T13:01:56;98430.59;;;6.13;71.80
21821;BME280;11073;48.586;12.066;2023-02-13T13:04:42;98422.72;;;6.19;71.30
21821;BME280;11073;48.586;12.066;2023-02-13T13:07:27;98424.38;;;6.12;71.32
21821;BME280;11073;48.586;12.066;2023-02-13T13:10:16;98432.06;;;6.07;71.02
21821;BME280;11073;48.586;12.066;2023-02-13T13:12:53;98426.28;;;5.94;70.83
21821;BME280;11073;48.586;12.066;2023-02-13T13:15:32;98423.41;;;5.87;70.90
21821;BME280;11073;48.586;12.066;2023-02-13T13:18:25;98426.81;;;5.97;71.02
21821;BME280;11073;48.586;12.066;2023-02-13T13:21:06;98418.63;;;6.07;70.96
21821;BME280;11073;48.586;12.066;2023-02-13T13:23:43;98415.97;;;6.15;70.62
21821;BME280;11073;48.586;12.066;2023-02-13T13:26:19;98411.41;;;6.07;70.45
21821;BME280;11073;48.586;12.066;2023-02-13T13:28:53;98414.50;;;6.29;70.62
21821;BME280;11073;48.586;12.066;2023-02-13T13:31:25;98409.00;;;6.39;70.39
21821;BME280;11073;48.586;12.066;2023-02-13T13:34:00;98410.88;;;6.54;70.28
21821;BME280;11073;48.586;12.066;2023-02-13T13:36:36;98413.03;;;6.51;69.84
21821;BME280;11073;48.586;12.066;2023-02-13T13:39:15;98410.50;;;6.49;69.86
21821;BME280;11073;48.586;12.066;2023-02-13T13:41:53;98405.47;;;6.46;69.44
21821;BME280;11073;48.586;12.066;2023-02-13T13:44:44;98416.72;;;6.42;69.48